Palchem 1 — 9HA2097 — position and weather

sailwx.info

Track history (hours):
 
Tides and Currents Weather Stations Pressure Air Temp Water Temp Dewpoint Dewpoint Depression Visibility Wind Speed Wind Dir Waves Ship Positions

Palchem 1

Last reported at 2014-Jul-29 04:23 UTC. Time now 2014-Jul-29 20:56 UTC.
Position N 46°32' E 030°58'.

Length 143 m; draft 8.7 m.

Type: Ship. MMSI: 249955000.

Date/timePositionNaut miles runAvg speedWind from/ knotsBaromVisibWave heightAir tempDewpointWater temp
2014-Jul-29 04:23N 46°32' E 030°58'0 0.0
2014-Jul-29 03:31N 46°32' E 030°58'0 0.0
2014-Jul-29 02:32N 46°32' E 030°58'0 0.0
2014-Jul-29 01:27N 46°32' E 030°58'0 0.0
2014-Jul-29 00:03N 46°32' E 030°58'0 0.0
2014-Jul-28 23:27N 46°32' E 030°58'0 0.0
2014-Jul-28 22:19N 46°32' E 030°58'0 0.0
2014-Jul-28 21:28N 46°32' E 030°58'0 0.0
2014-Jul-28 20:25N 46°32' E 030°58'7 0.4
2014-Jul-28 04:14N 46°25' E 030°57'811.9
2014-Jul-28 03:34N 46°17' E 030°59'1211.9
2014-Jul-28 02:31N 46°06' E 031°08'325 9.6
2014-Jul-26 16:33N 40°56' E 028°53'0 0.0
2014-Jul-26 15:22N 40°56' E 028°52'0 0.0
2014-Jul-26 13:27N 40°56' E 028°53'0 0.0
2014-Jul-26 04:20N 40°56' E 028°52'1 1.1
2014-Jul-26 03:32N 40°56' E 028°52'8 7.6
2014-Jul-26 02:33N 40°51' E 028°44'152 7.6
2014-Jul-25 06:30N 39°40' E 025°49'12711.6
2014-Jul-24 19:33N 37°32' E 025°49'1010.5
2014-Jul-24 18:33N 37°22' E 025°53'1111.3
2014-Jul-24 17:33N 37°13' E 026°01'1211.7
2014-Jul-24 16:33N 37°03' E 026°09'1211.3
2014-Jul-24 15:29N 36°53' E 026°17'1111.6
2014-Jul-24 14:33N 36°45' E 026°27'23211.5
2014-Jul-23 18:21N 34°36' E 030°24'2011.2
2014-Jul-23 16:32N 34°27' E 030°46'1111.5
2014-Jul-23 15:33N 34°21' E 030°58'1211.6
2014-Jul-23 14:33N 34°16' E 031°11'1211.8
2014-Jul-23 13:33N 34°10' E 031°23'1211.9
2014-Jul-23 12:33N 34°05' E 031°36'1211.8
2014-Jul-23 11:33N 33°60' E 031°49'1211.7
2014-Jul-23 10:32N 33°54' E 032°01'1111.6
2014-Jul-23 09:33N 33°49' E 032°13'1211.5
2014-Jul-23 08:33N 33°44' E 032°26'1211.6
2014-Jul-23 07:33N 33°38' E 032°38'1211.7
2014-Jul-23 06:33N 33°33' E 032°51'1211.9
2014-Jul-23 05:33N 33°27' E 033°03'1211.6
2014-Jul-23 04:34N 33°22' E 033°15'1212.1
2014-Jul-23 03:33N 33°16' E 033°28'1212.2
2014-Jul-23 02:32N 33°11' E 033°41'1211.9
2014-Jul-23 01:33N 33°05' E 033°54'1211.6
2014-Jul-23 00:33N 33°01' E 034°07'34 0.8
2014-Jul-21 08:27N 32°54' E 034°46'8111.0
2014-Jul-21 01:03N 33°32' E 033°20'911.7
2014-Jul-21 00:14N 33°40' E 033°26'3211.5
2014-Jul-20 21:29N 34°07' E 033°45'1011.2
2014-Jul-20 20:33N 34°16' E 033°51'1311.3
2014-Jul-20 19:23N 34°28' E 033°59'  
Track history (hours):
 
Tides and Currents Weather Stations Pressure Air Temp Water Temp Dewpoint Dewpoint Depression Visibility Wind Speed Wind Dir Waves Ship Positions

Palchem 1

Last reported at 2014-Jul-29 04:23 UTC. Time now 2014-Jul-29 20:56 UTC.
Position N 46°32' E 030°58'.

Length 143 m; draft 8.7 m.

Type: Ship. MMSI: 249955000.

Date/timePositionNaut miles runAvg speedWind from/ knotsBaromVisibWave heightAir tempDewpointWater temp
2014-Jul-29 04:23N 46°32' E 030°58'0 0.0
2014-Jul-29 03:31N 46°32' E 030°58'0 0.0
2014-Jul-29 02:32N 46°32' E 030°58'0 0.0
2014-Jul-29 01:27N 46°32' E 030°58'0 0.0
2014-Jul-29 00:03N 46°32' E 030°58'0 0.0
2014-Jul-28 23:27N 46°32' E 030°58'0 0.0
2014-Jul-28 22:19N 46°32' E 030°58'0 0.0
2014-Jul-28 21:28N 46°32' E 030°58'0 0.0
2014-Jul-28 20:25N 46°32' E 030°58'7 0.4
2014-Jul-28 04:14N 46°25' E 030°57'811.9
2014-Jul-28 03:34N 46°17' E 030°59'1211.9
2014-Jul-28 02:31N 46°06' E 031°08'325 9.6
2014-Jul-26 16:33N 40°56' E 028°53'0 0.0
2014-Jul-26 15:22N 40°56' E 028°52'0 0.0
2014-Jul-26 13:27N 40°56' E 028°53'0 0.0
2014-Jul-26 04:20N 40°56' E 028°52'1 1.1
2014-Jul-26 03:32N 40°56' E 028°52'8 7.6
2014-Jul-26 02:33N 40°51' E 028°44'152 7.6
2014-Jul-25 06:30N 39°40' E 025°49'12711.6
2014-Jul-24 19:33N 37°32' E 025°49'1010.5
2014-Jul-24 18:33N 37°22' E 025°53'1111.3
2014-Jul-24 17:33N 37°13' E 026°01'1211.7
2014-Jul-24 16:33N 37°03' E 026°09'1211.3
2014-Jul-24 15:29N 36°53' E 026°17'1111.6
2014-Jul-24 14:33N 36°45' E 026°27'23211.5
2014-Jul-23 18:21N 34°36' E 030°24'2011.2
2014-Jul-23 16:32N 34°27' E 030°46'1111.5
2014-Jul-23 15:33N 34°21' E 030°58'1211.6
2014-Jul-23 14:33N 34°16' E 031°11'1211.8
2014-Jul-23 13:33N 34°10' E 031°23'1211.9
2014-Jul-23 12:33N 34°05' E 031°36'1211.8
2014-Jul-23 11:33N 33°60' E 031°49'1211.7
2014-Jul-23 10:32N 33°54' E 032°01'1111.6
2014-Jul-23 09:33N 33°49' E 032°13'1211.5
2014-Jul-23 08:33N 33°44' E 032°26'1211.6
2014-Jul-23 07:33N 33°38' E 032°38'1211.7
2014-Jul-23 06:33N 33°33' E 032°51'1211.9
2014-Jul-23 05:33N 33°27' E 033°03'1211.6
2014-Jul-23 04:34N 33°22' E 033°15'1212.1
2014-Jul-23 03:33N 33°16' E 033°28'1212.2
2014-Jul-23 02:32N 33°11' E 033°41'1211.9
2014-Jul-23 01:33N 33°05' E 033°54'1211.6
2014-Jul-23 00:33N 33°01' E 034°07'34 0.8
2014-Jul-21 08:27N 32°54' E 034°46'8111.0
2014-Jul-21 01:03N 33°32' E 033°20'911.7
2014-Jul-21 00:14N 33°40' E 033°26'3211.5
2014-Jul-20 21:29N 34°07' E 033°45'1011.2
2014-Jul-20 20:33N 34°16' E 033°51'1311.3
2014-Jul-20 19:23N 34°28' E 033°59'  

Dump ship's entire track history